• Join FlightAware (Why Join?)
  • Login
  • US Flag 
12:29PM EST


 

Airport Tracker/Info


-or-


 

Live Flight TrackerFlight Track Log ✈ SWA2141 ✈ 24-Jul-2013 ✈ KSEA - KBWI

Flight Track Log - Related Links

Times and Time Zones

All times are in EDT time to prevent confusion due to time zone crossing. See the SWA2141 flight status page for this flight to view local times or setup timezone preferences in your user account.

Time Position Orientation Groundspeed Altitude Reporting Facility
EDT Latitude Longitude Course Direction KTS MPH feet Rate Location/Type
09:31PM 47.5010 -122.3080 359° North 204 235 2,500  Level FlightAware
09:32PM 47.5300 -122.3080 360° North 229 264 3,600 2,460 Climbing FlightAware
09:33PM 47.6030 -122.2920 North 266 306 6,400 2,640 Climbing FlightAware
09:34PM 47.6010 -122.2000 92° East 292 336 8,700 2,820 Climbing FlightAware
09:34PM 47.5880 -122.1650 119° Southeast 298 343 9,600 1,680 Climbing FlightAware
09:35PM 47.5610 -122.0900 118° Southeast 322 371 10,400 1,500 Climbing FlightAware
09:35PM 47.5300 -122.0000 117° Southeast 356 410 11,700 2,040 Climbing FlightAware
09:36PM 47.4980 -121.9120 118° Southeast 369 425 13,300 2,280 Climbing FlightAware
09:37PM 47.4620 -121.8120 118° Southeast 382 440 15,000 2,340 Climbing FlightAware
09:37PM 47.4330 -121.7150 114° Southeast 393 452 16,600 2,340 Climbing FlightAware
09:38PM 47.4280 -121.5970 94° East 402 463 18,300 2,280 Climbing FlightAware
09:39PM 47.4260 -121.4900 92° East 409 471 19,800 2,100 Climbing FlightAware
09:39PM 47.4250 -121.3790 91° East 419 482 21,000 1,860 Climbing FlightAware
09:40PM 47.4230 -121.2620 91° East 429 494 22,300 1,800 Climbing FlightAware
09:41PM 47.4210 -121.1490 91° East 437 503 23,400 1,680 Climbing FlightAware
09:41PM 47.4190 -121.0350 91° East 445 512 24,500 1,500 Climbing FlightAware
09:42PM 47.4160 -120.9000 92° East 455 524 25,500 1,320 Climbing FlightAware
09:43PM 47.4140 -120.7770 91° East 464 534 26,400 1,320 Climbing FlightAware
09:44PM 47.4090 -120.6360 93° East 472 543 27,400 1,320 Climbing FlightAware
09:44PM 47.4040 -120.5080 93° East 477 549 28,300 1,260 Climbing FlightAware
09:45PM 47.3980 -120.3630 93° East 483 556 29,200 1,140 Climbing FlightAware
09:46PM 47.3930 -120.2290 93° East 488 562 29,900 1,020 Climbing FlightAware
09:46PM 47.3870 -120.0830 93° East 494 568 30,700 1,200 Climbing FlightAware
09:47PM 47.3810 -119.9460 94° East 491 565 31,700 1,380 Climbing FlightAware
09:48PM 47.3750 -119.8100 94° East 487 560 32,600 1,260 Climbing FlightAware
09:48PM 47.3690 -119.6630 93° East 486 559 33,500 960 Climbing FlightAware
09:49PM 47.3630 -119.5320 94° East 490 564 34,000 780 Climbing FlightAware
09:50PM 47.3560 -119.3910 94° East 494 568 34,600 780 Climbing FlightAware
09:51PM 47.3490 -119.2440 94° East 497 572 35,200 840 Climbing FlightAware
09:51PM 47.3410 -119.0960 95° East 495 570 35,900 900 Climbing FlightAware
09:52PM 47.3340 -118.9660 94° East 492 566 36,500 660 Climbing FlightAware
09:53PM 47.3250 -118.7900 94° East 490 564 37,000 300 Climbing FlightAware
09:53PM 47.3180 -118.6620 95° East 488 562 37,000  Level FlightAware
09:54PM 47.3110 -118.5260 94° East 487 560 37,000  Level FlightAware
09:55PM 47.3030 -118.3950 95° East 485 558 37,000  Level FlightAware
09:55PM 47.2960 -118.2600 94° East 484 557 37,000  Level FlightAware
09:56PM 47.2880 -118.1330 95° East 485 558 37,000  Level FlightAware
09:57PM 47.2810 -118.0050 95° East 484 557 37,000  Level FlightAware
09:58PM 47.2700 -117.8380 95° East 485 558 37,000  Level FlightAware
09:58PM 47.2620 -117.6960 95° East 490 564 37,000  Level FlightAware
09:59PM 47.2530 -117.5550 95° East 490 564 37,000  Level FlightAware
10:00PM 47.2470 -117.4530 95° East 490 564 37,000  Level FlightAware
10:00PM 47.2410 -117.3510 95° East 490 564 37,000  Level FlightAware
10:01PM 47.2330 -117.2130 95° East 490 564 37,000  Level FlightAware
10:02PM 47.2270 -117.1110 95° East 490 564 37,000  Level FlightAware
10:02PM 47.2210 -117.0090 95° East 490 564 37,000  Level FlightAware
10:03PM 47.2130 -116.8790 95° East 490 564 37,000  Level FlightAware
10:04PM 47.2070 -116.7770 95° East 490 564 37,000  Level FlightAware
10:04PM 47.2010 -116.6760 95° East 490 564 37,000  Level FlightAware
10:05PM 47.1930 -116.5460 95° East 490 564 37,000  Level FlightAware
10:06PM 47.1870 -116.4440 95° East 490 564 37,000  Level FlightAware
10:06PM 47.1790 -116.3090 95° East 490 564 37,000  Level FlightAware
10:07PM 47.1710 -116.1790 95° East 490 564 37,000  Level FlightAware
10:08PM 47.1650 -116.0770 95° East 490 564 37,000  Level FlightAware
10:09PM 47.1119 -115.6253 95° East 498 573 37,000  Level Seattle Center
10:10PM 47.0956 -115.4247 97° East 497 572 37,000  Level Seattle Center
10:11PM 47.0806 -115.2467 97° East 498 573 37,000  Level Seattle Center
10:12PM 47.0633 -115.0458 97° East 499 574 37,000  Level Seattle Center
10:13PM 47.0419 -114.8072 97° East 496 571 37,000  Level Seattle Center
10:14PM 47.0239 -114.6072 97° East 498 573 37,000  Level Seattle Center
10:15PM 47.0058 -114.4078 97° East 497 572 37,000  Level Seattle Center
10:16PM 46.9878 -114.2092 98° East 496 571 37,000  Level Seattle Center
10:17PM 46.9683 -114.0117 98° East 494 568 37,000  Level Seattle Center
10:18PM 46.9489 -113.8108 98° East 500 575 37,000  Level Seattle Center
10:19PM 46.9283 -113.6103 98° East 501 577 37,000  Level Seattle Center
10:20PM 46.8981 -113.2886 98° East 501 577 37,000  Level Salt Lake Center
10:21PM 46.8769 -113.0886 99° East 502 578 37,000  Level Salt Lake Center
10:22PM 46.8561 -112.8958 99° East 501 577 37,000  Level Salt Lake Center
10:23PM 46.8358 -112.6983 98° East 496 571 37,000  Level Salt Lake Center
10:24PM 46.8100 -112.4572 99° East 501 577 37,000  Level Salt Lake Center
10:26PM 46.7869 -112.2583 100° East 501 577 37,000  Level Salt Lake Center
10:27PM 46.7647 -112.0617 99° East 497 572 37,000  Level Salt Lake Center
10:28PM 46.7425 -111.8628 99° East 499 574 37,000  Level Salt Lake Center
10:29PM 46.7200 -111.6658 99° East 497 572 37,000  Level Salt Lake Center
10:30PM 46.6956 -111.4653 100° East 502 578 37,000  Level Salt Lake Center
10:31PM 46.6664 -111.2258 100° East 504 580 37,000  Level Salt Lake Center
10:32PM 46.6425 -111.0278 100° East 502 578 37,000  Level Salt Lake Center
10:33PM 46.6181 -110.8308 100° East 500 575 37,000  Level Salt Lake Center
10:34PM 46.5925 -110.6317 101° East 504 580 37,000  Level Salt Lake Center
10:35PM 46.5717 -110.4353 99° East 500 575 37,000  Level Salt Lake Center
10:36PM 46.5411 -110.1961 100° East 501 577 37,000  Level Salt Lake Center
10:37PM 46.5144 -109.9986 101° East 502 578 37,000  Level Salt Lake Center
10:38PM 46.4869 -109.8017 101° East 501 577 37,000  Level Salt Lake Center
10:39PM 46.4608 -109.6033 101° East 501 577 37,000  Level Salt Lake Center
10:40PM 46.4311 -109.4061 102° East 502 578 37,000  Level Salt Lake Center
10:41PM 46.4033 -109.2078 101° East 503 579 37,000  Level Salt Lake Center
10:42PM 46.3753 -109.0081 101° East 508 585 37,000  Level Salt Lake Center
10:43PM 46.3408 -108.7697 102° East 505 581 37,000  Level Salt Lake Center
10:44PM 46.3119 -108.5703 102° East 508 585 37,000  Level Salt Lake Center
10:45PM 46.2828 -108.3714 102° East 507 583 37,000  Level Salt Lake Center
10:46PM 46.2536 -108.1733 102° East 505 581 37,000  Level Salt Lake Center
10:47PM 46.2225 -107.9753 103° East 506 582 37,000  Level Salt Lake Center
10:48PM 46.1947 -107.7794 102° East 500 575 37,000  Level Salt Lake Center
10:49PM 46.1667 -107.5806 101° East 506 582 37,000  Level Salt Lake Center
10:50PM 46.1314 -107.3408 102° East 509 586 37,000  Level Salt Lake Center
10:51PM 46.1017 -107.1414 102° East 510 587 37,000  Level Salt Lake Center
10:52PM 46.0717 -106.9411 102° East 512 589 37,000  Level Salt Lake Center
10:53PM 46.0408 -106.7381 102° East 516 594 37,000  Level Salt Lake Center
10:54PM 46.0092 -106.5367 103° East 517 595 37,000  Level Salt Lake Center
10:55PM 45.9781 -106.3347 102° East 518 596 37,000  Level Salt Lake Center
10:56PM 45.9461 -106.1339 103° East 517 595 37,000  Level Salt Lake Center
10:57PM 45.9136 -105.9333 103° East 517 595 37,000  Level Salt Lake Center
10:58PM 45.8758 -105.6933 103° East 516 594 37,000  Level Salt Lake Center
10:59PM 45.8456 -105.4944 102° East 514 592 37,000  Level Salt Lake Center
11:01PM 45.8131 -105.2925 103° East 518 596 37,000  Level Salt Lake Center
11:02PM 45.7786 -105.0911 104° East 521 600 37,000  Level Salt Lake Center
11:03PM 45.7442 -104.8886 104° East 523 602 37,000  Level Salt Lake Center
11:04PM 45.7094 -104.6875 104° East 523 602 37,000  Level Salt Lake Center
11:05PM 45.6750 -104.4875 104° East 523 602 37,000  Level Salt Lake Center
11:06PM 45.6392 -104.2861 104° East 524 603 37,000  Level Salt Lake Center
11:07PM 45.5961 -104.0378 104° East 533 613 37,000  Level Salt Lake Center
11:09PM 45.5306 -103.6767 104° East 532 612 37,000  Level Minneapolis Center
11:10PM 45.4939 -103.4756 105° East 531 611 37,000  Level Minneapolis Center
11:11PM 45.4481 -103.2250 105° East 529 609 37,000  Level Salt Lake Center
11:12PM 45.4103 -103.0222 105° East 531 611 37,000  Level Salt Lake Center
11:13PM 45.3692 -102.8086 105° East 532 612 37,000  Level Minneapolis Center
11:14PM 45.3297 -102.6075 106° East 530 610 37,000  Level Minneapolis Center
11:15PM 45.2911 -102.4064 105° East 530 610 37,000  Level Minneapolis Center
11:16PM 45.2428 -102.1617 106° East 535 616 37,000  Level Minneapolis Center
11:17PM 45.2033 -101.9594 105° East 535 616 37,000  Level Minneapolis Center
11:18PM 45.1617 -101.7575 106° East 535 616 37,000  Level Minneapolis Center
11:19PM 45.1208 -101.5544 106° East 537 618 37,000  Level Minneapolis Center
11:20PM 45.0719 -101.3136 106° East 534 615 37,000  Level Minneapolis Center
11:21PM 45.0383 -101.1544 107° East 531 611 37,000  Level Minneapolis Center
11:22PM 44.9914 -100.9161 105° East 528 608 37,000  Level Minneapolis Center
11:23PM 44.9486 -100.7189 107° East 527 606 37,000  Level Minneapolis Center
11:24PM 44.9058 -100.5219 107° East 528 608 37,000  Level Minneapolis Center
11:25PM 44.8542 -100.2856 107° East 531 611 37,000  Level Minneapolis Center
11:26PM 44.8114 -100.0911 107° East 531 611 37,000  Level Minneapolis Center
11:27PM 44.7700 -99.8950 106° East 531 611 37,000  Level Minneapolis Center
11:28PM 44.7267 -99.6972 107° East 533 613 37,000  Level Minneapolis Center
11:34PM 44.4520 -98.4930 107° East 535 616 37,000  Level FlightAware
11:35PM 44.4280 -98.3520 103° East 533 613 37,000  Level FlightAware
11:36PM 44.4050 -98.2060 102° East 533 613 37,000  Level FlightAware
11:36PM 44.3820 -98.0640 103° East 533 613 37,000  Level FlightAware
11:37PM 44.3600 -97.9280 103° East 532 612 37,000  Level FlightAware
11:38PM 44.3360 -97.7850 103° East 533 613 37,000  Level FlightAware
11:39PM 44.3130 -97.6520 104° East 531 611 37,000  Level FlightAware
11:39PM 44.2930 -97.5280 103° East 530 610 37,000  Level FlightAware
11:40PM 44.2610 -97.3430 104° East 531 611 37,000  Level FlightAware
11:41PM 44.2400 -97.2180 103° East 529 609 37,000  Level FlightAware
11:41PM 44.2180 -97.0900 103° East 529 609 37,000  Level FlightAware
11:42PM 44.1930 -96.9460 104° East 528 608 37,000  Level FlightAware
11:43PM 44.1690 -96.8100 104° East 528 608 37,000  Level FlightAware
11:43PM 44.1440 -96.6680 104° East 528 608 37,000  Level FlightAware
11:44PM 44.1200 -96.5330 104° East 529 609 37,000  Level FlightAware
11:45PM 44.0930 -96.3850 104° East 530 610 37,000  Level FlightAware
11:46PM 44.0700 -96.2530 104° East 530 610 37,000  Level FlightAware
11:46PM 44.0490 -96.1400 104° East 530 610 37,000  Level FlightAware
11:47PM 44.0240 -96.0040 104° East 529 609 37,000  Level FlightAware
11:48PM 43.9970 -95.8570 104° East 527 606 37,000  Level FlightAware
11:48PM 43.9740 -95.7350 105° East 525 604 37,000  Level FlightAware
11:49PM 43.9460 -95.5850 104° East 524 603 37,000  Level FlightAware
11:50PM 43.9210 -95.4530 105° East 524 603 37,000  Level FlightAware
11:50PM 43.8970 -95.3240 104° East 521 600 37,000  Level FlightAware
11:51PM 43.8690 -95.1820 105° East 516 594 37,000  Level FlightAware
11:52PM 43.8460 -95.0620 105° East 513 590 37,000  Level FlightAware
11:52PM 43.8180 -94.9170 105° East 511 588 37,000  Level FlightAware
11:53PM 43.7930 -94.7900 105° East 512 589 37,000  Level FlightAware
11:54PM 43.7650 -94.6500 105° East 510 587 37,000  Level FlightAware
11:55PM 43.7410 -94.5260 105° East 510 587 37,000  Level FlightAware
11:55PM 43.7140 -94.3860 105° East 515 593 37,000  Level FlightAware
11:56PM 43.6870 -94.2530 106° East 517 595 37,000  Level FlightAware
11:57PM 43.6590 -94.1140 106° East 519 597 37,000  Level FlightAware
11:57PM 43.6320 -93.9860 106° East 519 597 37,000  Level FlightAware
11:58PM 43.6040 -93.8480 106° East 520 598 37,000  Level FlightAware
11:59PM 43.5780 -93.7200 106° East 520 598 37,000  Level FlightAware
11:59PM 43.5530 -93.5970 106° East 521 600 37,000  Level FlightAware
12:00AM 43.5230 -93.4560 106° East 520 598 37,000  Level FlightAware
12:01AM 43.4960 -93.3260 106° East 520 598 37,000  Level FlightAware
12:02AM 43.4660 -93.1840 106° East 519 597 37,000  Level FlightAware
12:02AM 43.4410 -93.0670 106° East 518 596 37,000  Level FlightAware
12:03AM 43.4150 -92.9440 106° East 518 596 37,000  Level FlightAware
12:04AM 43.3840 -92.8030 107° East 518 596 37,000  Level FlightAware
12:04AM 43.3570 -92.6770 106° East 517 595 37,000  Level FlightAware
12:05AM 43.3270 -92.5410 107° East 516 594 37,000  Level FlightAware
12:06AM 43.3000 -92.4160 106° East 515 593 37,000  Level FlightAware
12:06AM 43.2710 -92.2830 107° East 514 592 37,000  Level FlightAware
12:07AM 43.2480 -92.1810 107° East 513 590 37,000  Level FlightAware
12:08AM 43.2180 -92.0460 107° East 512 589 37,000  Level FlightAware
12:08AM 43.1900 -91.9210 107° East 512 589 37,000  Level FlightAware
12:09AM 43.1590 -91.7840 107° East 513 590 37,000  Level FlightAware
12:10AM 43.1290 -91.6530 107° East 513 590 37,000  Level FlightAware
12:10AM 43.1030 -91.5380 107° East 513 590 37,000  Level FlightAware
12:11AM 43.0710 -91.4010 108° East 512 589 37,000  Level FlightAware
12:12AM 43.0420 -91.2750 107° East 514 592 37,000  Level FlightAware
12:12AM 43.0140 -91.1530 107° East 515 593 37,000  Level FlightAware
12:13AM 42.9830 -91.0240 108° East 515 593 37,000  Level FlightAware
12:14AM 42.9580 -90.9170 108° East 516 594 37,000  Level FlightAware
12:14AM 42.9290 -90.7920 108° East 517 595 37,000  Level FlightAware
12:15AM 42.8960 -90.6540 108° East 517 595 37,000  Level FlightAware
12:16AM 42.8670 -90.5300 108° East 517 595 37,000  Level FlightAware
12:17AM 42.8340 -90.3960 109° East 515 593 37,000  Level FlightAware
12:17AM 42.8050 -90.2740 108° East 514 592 37,000  Level FlightAware
12:18AM 42.7710 -90.1370 109° East 513 590 37,000  Level FlightAware
12:19AM 42.7420 -90.0160 108° East 511 588 37,000  Level FlightAware
12:19AM 42.7150 -89.9080 109° East 510 587 37,000  Level FlightAware
12:20AM 42.6850 -89.7850 108° East 508 585 37,000  Level FlightAware
12:21AM 42.6520 -89.6530 109° East 504 580 37,000  Level FlightAware
12:21AM 42.6250 -89.5470 109° East 501 577 37,000  Level FlightAware
12:22AM 42.5940 -89.4220 109° East 501 577 37,000  Level FlightAware
12:23AM 42.5640 -89.3020 109° East 502 578 37,000  Level FlightAware
12:23AM 42.5320 -89.1720 108° East 501 577 37,000  Level FlightAware
12:24AM 42.5000 -89.0480 109° East 499 574 37,000  Level FlightAware
12:25AM 42.4700 -88.9310 109° East 498 573 37,000  Level FlightAware
12:25AM 42.4360 -88.8010 109° East 498 573 37,000  Level FlightAware
12:26AM 42.4060 -88.6850 109° East 499 574 37,000  Level FlightAware
12:27AM 42.3750 -88.5650 109° East 498 573 37,000  Level FlightAware
12:27AM 42.3400 -88.4320 110° East 497 572 37,000  Level FlightAware
12:28AM 42.3090 -88.3140 110° East 496 571 37,000  Level FlightAware
12:29AM 42.2750 -88.1860 110° East 494 568 37,000  Level FlightAware
12:30AM 42.2440 -88.0690 110° East 495 570 37,000  Level FlightAware
12:30AM 42.2100 -87.9400 110° East 494 568 37,000  Level FlightAware
12:31AM 42.1790 -87.8260 110° East 493 567 37,000  Level FlightAware
12:32AM 42.1450 -87.6990 110° East 493 567 37,000  Level FlightAware
12:32AM 42.1140 -87.5840 110° East 492 566 37,000  Level FlightAware
12:33AM 42.0850 -87.4800 111° Southeast 491 565 37,000  Level FlightAware
12:34AM 42.0550 -87.3670 110° East 491 565 37,000  Level FlightAware
12:34AM 42.0210 -87.2430 110° East 491 565 37,000  Level FlightAware
12:35AM 41.9920 -87.1400 111° Southeast 490 564 37,000  Level FlightAware
12:36AM 41.9600 -87.0230 110° East 490 564 37,000  Level FlightAware
12:36AM 41.9260 -86.9030 111° Southeast 490 564 37,000  Level FlightAware
12:37AM 41.8970 -86.7980 110° East 490 564 37,000  Level FlightAware
12:38AM 41.8660 -86.6870 111° Southeast 490 564 37,000  Level FlightAware
12:38AM 41.8310 -86.5630 111° Southeast 489 563 37,000  Level FlightAware
12:39AM 41.7970 -86.4420 111° Southeast 489 563 37,000  Level FlightAware
12:40AM 41.7650 -86.3310 111° Southeast 490 564 37,000  Level FlightAware
12:40AM 41.7290 -86.2050 111° Southeast 480 552 37,000  Level FlightAware
12:41AM 41.6980 -86.0970 111° Southeast 478 550 37,000  Level FlightAware
12:42AM 41.6670 -85.9900 111° Southeast 479 551 37,000  Level FlightAware
12:42AM 41.6390 -85.8920 111° Southeast 479 551 37,000  Level FlightAware
12:43AM 41.6050 -85.7770 112° Southeast 479 551 37,000  Level FlightAware
12:44AM 41.5720 -85.6620 111° Southeast 479 551 37,000  Level FlightAware
12:44AM 41.5380 -85.5460 111° Southeast 478 550 37,000  Level FlightAware
12:45AM 41.5020 -85.4240 111° Southeast 480 552 37,000  Level FlightAware
12:46AM 41.4670 -85.3040 111° Southeast 482 555 37,000  Level FlightAware
12:47AM 41.4310 -85.1850 112° Southeast 485 558 37,000  Level FlightAware
12:47AM 41.4040 -85.0940 112° Southeast 485 558 37,000  Level FlightAware
12:48AM 41.3680 -84.9740 112° Southeast 479 551 37,000  Level FlightAware
12:49AM 41.3360 -84.8700 112° Southeast 472 543 37,000  Level FlightAware
12:49AM 41.3070 -84.7740 112° Southeast 474 545 37,000  Level FlightAware
12:50AM 41.2730 -84.6620 112° Southeast 474 545 37,000  Level FlightAware
12:51AM 41.2380 -84.5430 111° Southeast 473 544 37,000  Level FlightAware
12:51AM 41.2130 -84.4540 110° East 473 544 37,000  Level FlightAware
12:52AM 41.1790 -84.3310 110° East 473 544 37,000  Level FlightAware
12:53AM 41.1480 -84.2230 111° Southeast 472 543 37,000  Level FlightAware
12:53AM 41.1160 -84.1110 111° Southeast 471 542 37,000  Level FlightAware
12:54AM 41.0820 -83.9920 111° Southeast 472 543 37,000  Level FlightAware
12:55AM 41.0520 -83.8870 111° Southeast 472 543 37,000  Level FlightAware
12:55AM 41.0160 -83.7630 111° Southeast 473 544 37,000  Level FlightAware
12:56AM 40.9930 -83.6840 111° Southeast 473 544 37,000  Level FlightAware
12:57AM 40.9580 -83.5650 111° Southeast 474 545 37,000  Level FlightAware
12:57AM 40.9220 -83.4410 111° Southeast 473 544 37,000  Level FlightAware
12:58AM 40.8980 -83.3590 111° Southeast 474 545 37,000  Level FlightAware
12:59AM 40.8620 -83.2350 111° Southeast 475 547 37,000  Level FlightAware
12:59AM 40.8290 -83.1230 111° Southeast 476 548 37,000  Level FlightAware
01:00AM 40.7970 -83.0150 111° Southeast 476 548 37,000  Level FlightAware
01:01AM 40.7610 -82.8950 112° Southeast 478 550 37,000  Level FlightAware
01:01AM 40.7280 -82.7860 112° Southeast 479 551 37,000  Level FlightAware
01:02AM 40.6910 -82.6640 112° Southeast 480 552 37,000  Level FlightAware
01:03AM 40.6620 -82.5660 111° Southeast 480 552 37,000  Level FlightAware
01:03AM 40.6280 -82.4570 112° Southeast 479 551 37,000  Level FlightAware
01:04AM 40.5960 -82.3510 112° Southeast 478 550 37,000  Level FlightAware
01:05AM 40.5630 -82.2430 112° Southeast 477 549 37,000  Level FlightAware
01:05AM 40.5290 -82.1320 112° Southeast 476 548 37,000  Level FlightAware
01:06AM 40.4970 -82.0270 112° Southeast 473 544 37,000  Level FlightAware
01:07AM 40.4640 -81.9210 112° Southeast 471 542 37,000  Level FlightAware
01:07AM 40.4290 -81.8090 112° Southeast 470 541 37,000  Level FlightAware
01:08AM 40.3950 -81.6990 112° Southeast 469 540 37,000  Level FlightAware
01:09AM 40.3570 -81.5800 113° Southeast 467 537 37,000  Level FlightAware
01:10AM 40.3250 -81.4750 112° Southeast 469 540 37,000  Level FlightAware
01:10AM 40.3010 -81.3780 108° East 470 541 37,000  Level FlightAware
01:11AM 40.2730 -81.2620 108° East 471 542 37,000  Level FlightAware
01:12AM 40.2470 -81.1530 107° East 471 542 37,000  Level FlightAware
01:12AM 40.2190 -81.0390 108° East 474 545 37,000  Level FlightAware
01:13AM 40.1890 -80.9180 108° East 476 548 37,000  Level FlightAware
01:14AM 40.1640 -80.8140 107° East 478 550 37,000  Level FlightAware
01:14AM 40.1330 -80.6890 108° East 481 554 37,000  Level FlightAware
01:15AM 40.1110 -80.6000 108° East 481 554 37,000  Level FlightAware
01:16AM 40.0800 -80.4790 108° East 483 556 37,000  Level FlightAware
01:16AM 40.0520 -80.3670 108° East 484 557 37,000  Level FlightAware
01:17AM 40.0260 -80.2630 108° East 486 559 37,000  Level FlightAware
01:18AM 39.9980 -80.1540 109° East 487 560 37,000  Level FlightAware
01:18AM 39.9670 -80.0310 108° East 488 562 37,000  Level FlightAware
01:19AM 39.9380 -79.9180 108° East 489 563 37,000  Level FlightAware
01:20AM 39.9060 -79.7910 108° East 489 563 37,000  Level FlightAware
01:20AM 39.8770 -79.6790 109° East 487 560 37,000  Level FlightAware
01:21AM 39.8460 -79.5590 109° East 488 562 37,000  Level FlightAware
01:22AM 39.8200 -79.4580 109° East 487 560 37,000  Level FlightAware
01:22AM 39.7900 -79.3470 109° East 487 560 37,000 -780 Level FlightAware
01:23AM 39.7610 -79.2370 109° East 481 554 36,000 -2,160 Descending FlightAware
01:24AM 39.7320 -79.1240 108° East 486 559 34,100 -2,880 Descending FlightAware
01:24AM 39.7050 -79.0240 109° East 489 563 32,300 -2,700 Descending FlightAware
01:25AM 39.6740 -78.9080 109° East 480 552 30,600 -2,340 Descending FlightAware
01:26AM 39.6490 -78.8120 109° East 469 540 29,300 -2,280 Descending FlightAware
01:26AM 39.6190 -78.7010 109° East 457 526 27,700 -2,280 Descending FlightAware
01:27AM 39.5910 -78.5980 109° East 444 511 26,200 -2,160 Descending FlightAware
01:28AM 39.5670 -78.5090 109° East 433 498 24,900 -2,160 Descending FlightAware
01:29AM 39.5360 -78.3940 109° East 420 483 23,200 -2,160 Descending FlightAware
01:29AM 39.5100 -78.3010 110° East 410 472 21,800 -2,100 Descending FlightAware
01:30AM 39.4820 -78.1950 109° East 400 460 20,300 -1,980 Descending FlightAware
01:31AM 39.4600 -78.1180 110° East 391 450 19,100 -1,980 Descending FlightAware
01:31AM 39.4350 -78.0290 110° East 382 440 17,800 -2,040 Descending FlightAware
01:32AM 39.4120 -77.9420 109° East 373 429 16,400 -1,920 Descending FlightAware
01:32AM 39.3950 -77.8670 106° East 363 418 15,400 -1,560 Descending FlightAware
01:33AM 39.3800 -77.7930 105° East 356 410 14,300 -1,620 Descending FlightAware
01:34AM 39.3610 -77.7050 106° East 348 400 13,100 -1,740 Descending FlightAware
01:35AM 39.3440 -77.6240 105° East 340 391 11,900 -1,560 Descending FlightAware
01:35AM 39.3250 -77.5360 106° East 324 373 10,900 -1,200 Descending FlightAware
01:36AM 39.3120 -77.4750 105° East 312 359 10,300 -1,140 Descending FlightAware
01:39AM 39.2413 -77.0533 78° East  Level Estimated
01:39AM 39.2450 -77.1710 78° East 289 333 7,000  Level FlightAware
01:39AM 39.2350 -77.1210 104° East 290 334 6,200 -1,560 Descending FlightAware
01:40AM 39.2260 -77.0810 106° East 294 338 5,600 -1,500 Descending FlightAware
01:40AM 39.2160 -77.0350 106° East 289 333 4,900 -1,140 Descending FlightAware
01:42AM 39.1880 -76.9080 106° East 211 243 3,400 -1,020 Descending FlightAware
01:42AM 39.1830 -76.8780 102° East 190 219 3,100 -1,020 Descending FlightAware
01:43AM 39.1820 -76.8450 92° East 177 204 2,500 -1,140 Descending FlightAware
01:43AM 39.1810 -76.8140 92° East 164 189 2,000 -1,020 Descending FlightAware
01:46AM 39.1667 -76.6667 142° Southeast  Level FlightAware Approximate
01:47AM 39.1754 -76.6683 142° Southeast  Level Estimated
01:48AM 39.1754 -76.6683 142° Southeast  Level Estimated
01:49AM 39.1754 -76.6683 142° Southeast  Level Estimated
01:50AM 39.1754 -76.6683 142° Southeast  Level Estimated
01:51AM 39.1754 -76.6683 142° Southeast  Level Estimated
01:52AM 39.1754 -76.6683 142° Southeast  Level Estimated
01:53AM 39.1754 -76.6683 142° Southeast  Level Estimated
01:54AM 39.1754 -76.6683 142° Southeast  Level Estimated
01:55AM 39.1754 -76.6683 142° Southeast  Level Estimated
01:56AM 39.1754 -76.6683 142° Southeast  Level Estimated
01:57AM 39.1754 -76.6683 142° Southeast  Level Estimated
01:58AM 39.1754 -76.6683 142° Southeast  Level Estimated
01:59AM 39.1754 -76.6683 142° Southeast  Level Estimated
02:00AM 39.1754 -76.6683 142° Southeast  Level Estimated
02:01AM 39.1754 -76.6683 142° Southeast  Level Estimated
02:02AM 39.1754 -76.6683 142° Southeast  Level Estimated
02:03AM 39.1754 -76.6683 142° Southeast  Level Estimated
02:04AM 39.1754 -76.6683 142° Southeast  Level Estimated
02:05AM 39.1754 -76.6683 142° Southeast  Level Estimated